createdAt,value
2017-12-31T00:00:14.671Z,86.20
2017-12-31T00:02:42.251Z,86.20
2017-12-31T00:05:10.575Z,86.40
2017-12-31T00:07:38.120Z,85.70
2017-12-31T00:10:05.707Z,85.50
2017-12-31T00:12:33.256Z,84.20
2017-12-31T00:15:00.800Z,84.70
2017-12-31T00:17:29.116Z,81.80
2017-12-31T00:19:56.693Z,81.80
2017-12-31T00:22:24.279Z,81.20
2017-12-31T00:24:51.839Z,82.40
2017-12-31T00:27:20.179Z,81.70
2017-12-31T00:29:47.753Z,81.60
2017-12-31T00:32:15.331Z,81.00
2017-12-31T00:34:42.891Z,81.80
2017-12-31T00:37:10.493Z,81.30
2017-12-31T00:39:39.664Z,81.20
2017-12-31T00:42:07.307Z,81.20
2017-12-31T00:44:35.615Z,80.70
2017-12-31T00:47:03.931Z,80.80
2017-12-31T00:49:31.539Z,80.80
2017-12-31T00:51:59.089Z,82.10
2017-12-31T00:54:27.535Z,79.50
2017-12-31T00:56:55.077Z,79.50
2017-12-31T00:59:23.395Z,79.60
2017-12-31T01:01:50.934Z,79.60
2017-12-31T01:04:18.490Z,79.30
2017-12-31T01:06:46.027Z,80.00
2017-12-31T01:09:14.349Z,79.20
2017-12-31T01:11:41.893Z,79.10
2017-12-31T01:14:09.449Z,79.30
2017-12-31T01:16:37.000Z,79.80
2017-12-31T01:19:04.567Z,79.90
2017-12-31T01:21:32.895Z,79.00
2017-12-31T01:24:00.454Z,79.00
2017-12-31T01:26:28.033Z,79.70
2017-12-31T01:28:56.359Z,79.10
2017-12-31T01:31:23.901Z,79.10
2017-12-31T01:33:51.434Z,79.80
2017-12-31T01:36:18.996Z,79.20
2017-12-31T01:38:46.683Z,79.70
2017-12-31T01:41:14.232Z,79.80
2017-12-31T01:43:41.774Z,80.10
2017-12-31T01:46:09.330Z,80.10
2017-12-31T01:48:36.876Z,80.20
2017-12-31T01:51:04.433Z,80.20
2017-12-31T01:53:31.968Z,80.10
2017-12-31T01:56:00.292Z,80.80
2017-12-31T01:58:27.864Z,80.80
2017-12-31T02:00:56.181Z,79.50
2017-12-31T02:03:23.715Z,79.60
2017-12-31T02:05:51.267Z,80.10
2017-12-31T02:08:18.808Z,80.10
2017-12-31T02:10:47.107Z,80.40
2017-12-31T02:13:15.437Z,80.40
2017-12-31T02:15:42.997Z,80.30
2017-12-31T02:18:11.311Z,81.20
2017-12-31T02:20:38.848Z,81.00
2017-12-31T02:23:06.395Z,80.90
2017-12-31T02:25:33.939Z,81.50
2017-12-31T02:28:01.491Z,81.20
2017-12-31T02:30:29.032Z,81.80
2017-12-31T02:32:56.586Z,81.70
2017-12-31T02:35:24.124Z,82.60
2017-12-31T02:37:51.686Z,81.90
2017-12-31T02:40:19.224Z,81.90
2017-12-31T02:42:46.787Z,82.40
2017-12-31T02:45:14.332Z,82.70
2017-12-31T02:47:41.868Z,82.50
2017-12-31T02:50:09.418Z,82.90
2017-12-31T02:52:36.956Z,83.00
2017-12-31T02:55:04.507Z,83.40
2017-12-31T02:57:32.044Z,83.70
2017-12-31T03:00:00.370Z,84.30
2017-12-31T03:02:27.903Z,84.20
2017-12-31T03:04:55.484Z,84.70
2017-12-31T03:07:23.021Z,84.80
2017-12-31T03:09:50.575Z,85.10
2017-12-31T03:12:18.880Z,85.40
2017-12-31T03:14:47.195Z,85.40
2017-12-31T03:17:14.732Z,85.40
2017-12-31T03:19:42.289Z,85.50
2017-12-31T03:22:09.833Z,85.40
2017-12-31T03:24:37.400Z,85.80
2017-12-31T03:27:04.940Z,85.90
2017-12-31T03:29:32.493Z,86.00
2017-12-31T03:32:00.038Z,86.20
2017-12-31T03:34:27.617Z,86.50
2017-12-31T03:36:55.152Z,86.30
2017-12-31T03:39:22.718Z,86.00
2017-12-31T03:41:51.049Z,85.90
2017-12-31T03:44:18.588Z,85.90
2017-12-31T03:46:46.914Z,86.40
2017-12-31T03:49:14.452Z,86.30
2017-12-31T03:51:42.007Z,85.80
2017-12-31T03:54:09.550Z,85.90
2017-12-31T03:56:37.871Z,86.20
2017-12-31T03:59:05.413Z,86.20
2017-12-31T04:01:32.969Z,86.40
2017-12-31T04:04:00.516Z,86.00
2017-12-31T04:06:28.838Z,85.90
2017-12-31T04:08:56.770Z,85.80
2017-12-31T04:11:24.351Z,85.80
2017-12-31T04:13:51.887Z,85.80
2017-12-31T04:16:19.425Z,85.90
2017-12-31T04:18:46.980Z,85.60
2017-12-31T04:21:14.535Z,85.50
2017-12-31T04:23:42.091Z,85.80
2017-12-31T04:26:09.629Z,85.80
2017-12-31T04:28:37.187Z,85.90
2017-12-31T04:31:04.752Z,86.10
2017-12-31T04:33:33.072Z,86.60
2017-12-31T04:36:00.617Z,86.60
2017-12-31T04:38:28.162Z,86.70
2017-12-31T04:40:55.701Z,87.00
2017-12-31T04:43:24.020Z,88.10
2017-12-31T04:45:52.326Z,87.40
2017-12-31T04:48:19.895Z,87.40
2017-12-31T04:50:48.199Z,87.90
2017-12-31T04:53:16.529Z,88.00
2017-12-31T04:55:44.071Z,88.00
2017-12-31T04:58:11.603Z,87.90
2017-12-31T05:00:39.164Z,88.00
2017-12-31T05:03:06.697Z,88.00
2017-12-31T05:05:34.261Z,88.00
2017-12-31T05:08:01.808Z,88.00
2017-12-31T05:10:29.364Z,88.20
2017-12-31T05:12:56.901Z,88.40
2017-12-31T05:15:24.465Z,88.60
2017-12-31T05:17:52.005Z,89.00
2017-12-31T05:20:19.564Z,89.10
2017-12-31T05:22:47.104Z,89.30
2017-12-31T05:25:15.444Z,89.40
2017-12-31T05:27:42.988Z,89.40
2017-12-31T05:30:11.295Z,90.00
2017-12-31T05:32:38.857Z,90.00
2017-12-31T05:35:06.393Z,90.10
2017-12-31T05:37:33.959Z,90.00
2017-12-31T05:40:01.496Z,90.30
2017-12-31T05:42:29.067Z,90.30
2017-12-31T05:44:56.600Z,90.50
2017-12-31T05:47:24.920Z,90.60
2017-12-31T05:49:52.459Z,90.70
2017-12-31T05:52:20.025Z,90.80
2017-12-31T05:54:47.573Z,90.80
2017-12-31T05:57:15.137Z,91.00
2017-12-31T05:59:42.682Z,91.10
2017-12-31T06:02:10.243Z,91.00
2017-12-31T06:04:37.807Z,91.10
2017-12-31T06:07:05.389Z,91.10
2017-12-31T06:09:32.956Z,91.30
2017-12-31T06:12:00.495Z,91.40
2017-12-31T06:14:28.057Z,91.50
2017-12-31T06:16:55.613Z,91.50
2017-12-31T06:19:23.179Z,91.70
2017-12-31T06:21:51.479Z,91.70
2017-12-31T06:24:19.795Z,91.80
2017-12-31T06:26:48.094Z,91.70
2017-12-31T06:29:16.415Z,91.80
2017-12-31T06:31:43.961Z,91.80
2017-12-31T06:34:12.288Z,91.60
2017-12-31T06:36:39.829Z,91.80
2017-12-31T06:39:08.183Z,92.00
2017-12-31T06:41:35.733Z,92.00
2017-12-31T06:44:04.072Z,92.00
2017-12-31T06:46:31.607Z,92.00
2017-12-31T06:48:59.148Z,92.00
2017-12-31T06:51:26.702Z,92.00
2017-12-31T06:53:55.027Z,92.00
2017-12-31T06:56:22.592Z,91.90
2017-12-31T06:58:51.003Z,92.10
2017-12-31T07:01:19.319Z,92.10
2017-12-31T07:03:46.871Z,92.10
2017-12-31T07:06:15.197Z,92.10
2017-12-31T07:08:42.730Z,92.00
2017-12-31T07:11:10.292Z,92.00
2017-12-31T07:13:37.832Z,92.00
2017-12-31T07:16:06.144Z,92.10
2017-12-31T07:18:33.680Z,92.20
2017-12-31T07:21:01.245Z,92.20
2017-12-31T07:23:28.784Z,92.20
2017-12-31T07:25:57.092Z,92.20
2017-12-31T07:28:24.676Z,92.20
2017-12-31T07:30:52.219Z,92.20
2017-12-31T07:33:19.779Z,92.10
2017-12-31T07:35:47.321Z,92.10
2017-12-31T07:38:15.643Z,92.20
2017-12-31T07:40:43.177Z,92.20
2017-12-31T07:43:10.732Z,92.20
2017-12-31T07:45:38.273Z,92.20
2017-12-31T07:48:05.840Z,92.20
2017-12-31T07:50:34.152Z,92.30
2017-12-31T07:53:02.524Z,92.30
2017-12-31T07:55:30.077Z,92.30
2017-12-31T07:57:57.632Z,92.40
2017-12-31T08:00:25.944Z,92.60
2017-12-31T08:02:53.514Z,92.60
2017-12-31T08:05:21.816Z,92.60
2017-12-31T08:07:50.125Z,92.50
2017-12-31T08:10:18.447Z,92.60
2017-12-31T08:12:45.983Z,92.50
2017-12-31T08:15:13.541Z,92.70
2017-12-31T08:17:41.075Z,92.80
2017-12-31T08:20:08.638Z,92.50
2017-12-31T08:22:36.939Z,92.40
2017-12-31T08:25:04.517Z,92.30
2017-12-31T08:27:32.048Z,92.20
2017-12-31T08:29:59.610Z,92.10
2017-12-31T08:32:27.915Z,91.70
2017-12-31T08:34:55.471Z,91.70
2017-12-31T08:37:23.013Z,91.60
2017-12-31T08:39:50.584Z,91.50
2017-12-31T08:42:18.115Z,91.30
2017-12-31T08:44:45.707Z,91.30
2017-12-31T08:47:14.012Z,91.20
2017-12-31T08:49:42.336Z,90.80
2017-12-31T08:52:09.876Z,91.10
2017-12-31T08:54:37.435Z,90.90
2017-12-31T08:57:04.974Z,90.80
2017-12-31T08:59:33.275Z,90.70
2017-12-31T09:02:01.604Z,90.60
2017-12-31T09:04:29.907Z,90.20
2017-12-31T09:06:57.470Z,90.30
2017-12-31T09:09:25.804Z,90.20
2017-12-31T09:11:53.365Z,90.50
2017-12-31T09:14:20.904Z,90.20
2017-12-31T09:16:48.459Z,90.10
2017-12-31T09:19:16.007Z,90.10
2017-12-31T09:21:43.580Z,90.00
2017-12-31T09:24:11.892Z,90.10
2017-12-31T09:26:40.213Z,90.10
2017-12-31T09:29:08.519Z,90.10
2017-12-31T09:31:36.400Z,90.10
2017-12-31T09:34:03.940Z,90.20
2017-12-31T09:36:31.466Z,90.30
2017-12-31T09:38:59.028Z,90.40
2017-12-31T09:41:27.336Z,90.10
2017-12-31T09:43:55.656Z,90.00
2017-12-31T09:46:23.188Z,90.00
2017-12-31T09:48:50.768Z,90.10
2017-12-31T09:51:18.308Z,90.10
2017-12-31T09:53:45.859Z,90.00
2017-12-31T09:56:13.401Z,90.00
2017-12-31T09:58:40.992Z,90.00
2017-12-31T10:01:08.536Z,90.00
2017-12-31T10:03:36.093Z,90.10
2017-12-31T10:06:03.634Z,90.10
2017-12-31T10:08:31.191Z,90.20
2017-12-31T10:10:58.735Z,90.30
2017-12-31T10:13:26.289Z,90.40
2017-12-31T10:15:53.823Z,90.60
2017-12-31T10:18:22.144Z,90.70
2017-12-31T10:20:49.688Z,90.70
2017-12-31T10:23:17.244Z,90.80
2017-12-31T10:25:45.693Z,90.80
2017-12-31T10:28:15.527Z,91.00
2017-12-31T10:30:44.206Z,91.30
2017-12-31T10:33:11.748Z,91.30
2017-12-31T10:35:39.310Z,91.50
2017-12-31T10:38:07.625Z,92.10
2017-12-31T10:40:35.191Z,92.00
2017-12-31T10:43:03.501Z,92.60
2017-12-31T10:45:31.841Z,92.80
2017-12-31T10:47:59.401Z,92.80
2017-12-31T10:50:26.955Z,93.10
2017-12-31T10:52:54.499Z,93.30
2017-12-31T10:55:22.051Z,93.50
2017-12-31T10:57:49.598Z,93.70
2017-12-31T11:00:17.153Z,93.90
2017-12-31T11:02:44.740Z,94.00
2017-12-31T11:05:12.296Z,94.20
2017-12-31T11:07:39.832Z,94.40
2017-12-31T11:10:07.401Z,94.50
2017-12-31T11:12:34.963Z,94.50
2017-12-31T11:15:02.539Z,94.50
2017-12-31T11:17:30.092Z,94.60
2017-12-31T11:19:58.411Z,94.80
2017-12-31T11:22:25.953Z,94.70
2017-12-31T11:24:53.487Z,94.90
2017-12-31T11:27:21.044Z,95.00
2017-12-31T11:29:49.356Z,95.10
2017-12-31T11:32:17.677Z,95.10
2017-12-31T11:34:45.216Z,95.10
2017-12-31T11:37:12.778Z,95.20
2017-12-31T11:39:40.324Z,95.30
2017-12-31T11:42:07.898Z,95.50
2017-12-31T11:44:35.440Z,95.60
2017-12-31T11:47:03.004Z,95.70
2017-12-31T11:49:30.552Z,95.70
2017-12-31T11:51:58.117Z,95.80
2017-12-31T11:54:26.429Z,95.80
2017-12-31T11:56:54.765Z,96.00
2017-12-31T11:59:22.307Z,96.00
2017-12-31T12:01:50.684Z,96.20
2017-12-31T12:04:18.245Z,96.20
2017-12-31T12:06:45.912Z,96.40
2017-12-31T12:09:13.468Z,96.70
2017-12-31T12:11:41.830Z,97.70
2017-12-31T12:14:09.609Z,97.60
2017-12-31T12:16:37.154Z,97.70
2017-12-31T12:19:04.717Z,97.70
2017-12-31T12:21:33.716Z,97.80
2017-12-31T12:24:01.451Z,97.80
2017-12-31T12:26:29.749Z,97.90
2017-12-31T12:28:57.398Z,98.00
2017-12-31T12:31:25.050Z,98.00
2017-12-31T12:33:54.764Z,98.10
2017-12-31T12:36:23.645Z,98.20
2017-12-31T12:38:51.778Z,98.30
2017-12-31T12:41:20.252Z,98.40
2017-12-31T12:43:50.589Z,98.50
2017-12-31T12:46:18.520Z,98.50
2017-12-31T12:48:48.144Z,98.50
2017-12-31T12:51:15.846Z,98.50
2017-12-31T12:53:43.408Z,98.50
2017-12-31T12:56:11.720Z,98.60
2017-12-31T12:58:39.372Z,98.60
2017-12-31T13:01:07.046Z,98.90
2017-12-31T13:03:34.635Z,99.00
2017-12-31T13:06:02.195Z,99.10
2017-12-31T13:08:29.763Z,99.20
2017-12-31T13:10:57.380Z,99.20
2017-12-31T13:13:24.927Z,99.30
2017-12-31T13:15:52.484Z,99.60
2017-12-31T13:18:20.817Z,99.80
2017-12-31T13:20:48.392Z,99.70
2017-12-31T13:23:15.947Z,99.80
2017-12-31T13:25:43.521Z,99.90
2017-12-31T13:28:11.079Z,99.90
2017-12-31T13:30:38.625Z,99.90
2017-12-31T13:33:07.094Z,99.90
2017-12-31T13:35:34.656Z,99.90
2017-12-31T13:38:02.249Z,99.90
2017-12-31T13:40:31.354Z,99.90
2017-12-31T13:42:58.939Z,99.90
2017-12-31T13:45:27.280Z,99.90
2017-12-31T13:47:54.848Z,99.90
2017-12-31T13:50:22.395Z,99.90
2017-12-31T13:52:50.144Z,99.90
2017-12-31T13:55:17.735Z,99.90
2017-12-31T13:57:46.106Z,99.90
2017-12-31T14:00:13.663Z,99.90
2017-12-31T14:02:42.005Z,98.30
2017-12-31T14:05:09.561Z,98.30
2017-12-31T14:07:40.051Z,97.70
2017-12-31T14:10:07.740Z,97.30
2017-12-31T14:12:35.315Z,97.30
2017-12-31T14:15:02.885Z,97.30
2017-12-31T14:17:30.448Z,97.10
2017-12-31T14:19:58.058Z,97.00
2017-12-31T14:22:25.610Z,97.00
2017-12-31T14:24:53.171Z,97.00
2017-12-31T14:27:21.484Z,96.80
2017-12-31T14:29:49.052Z,96.80
2017-12-31T14:32:16.612Z,96.80
2017-12-31T14:34:44.193Z,96.80
2017-12-31T14:37:11.741Z,96.80
2017-12-31T14:39:39.387Z,96.30
2017-12-31T14:42:06.982Z,96.10
2017-12-31T14:44:34.608Z,96.10
2017-12-31T14:47:03.547Z,96.00
2017-12-31T14:49:31.179Z,96.00
2017-12-31T14:51:58.774Z,95.90
2017-12-31T14:54:27.094Z,95.80
2017-12-31T14:56:54.672Z,95.80
2017-12-31T14:59:22.262Z,95.90
2017-12-31T15:01:49.863Z,95.90
2017-12-31T15:04:17.420Z,95.90
2017-12-31T15:06:45.009Z,95.90
2017-12-31T15:09:12.584Z,95.80
2017-12-31T15:11:40.918Z,95.80
2017-12-31T15:14:08.520Z,95.80
2017-12-31T15:16:36.872Z,95.50
2017-12-31T15:19:08.864Z,95.50
2017-12-31T15:21:37.045Z,95.50
2017-12-31T15:24:04.818Z,95.40
2017-12-31T15:26:32.409Z,95.40
2017-12-31T15:29:07.294Z,95.30
2017-12-31T15:31:38.823Z,95.30
2017-12-31T15:34:07.499Z,95.30
2017-12-31T15:36:35.073Z,95.10
2017-12-31T15:39:02.702Z,95.00
2017-12-31T15:41:31.081Z,94.80
2017-12-31T15:43:58.647Z,94.80
2017-12-31T15:46:26.196Z,94.70
2017-12-31T15:48:53.779Z,94.70
2017-12-31T15:51:24.968Z,94.50
2017-12-31T15:53:53.024Z,94.40
2017-12-31T15:56:23.605Z,94.30
2017-12-31T15:58:52.741Z,94.30
2017-12-31T16:01:20.341Z,94.30
2017-12-31T16:03:49.049Z,94.20
2017-12-31T16:06:17.592Z,93.90
2017-12-31T16:08:47.361Z,93.80
2017-12-31T16:11:15.712Z,93.90
2017-12-31T16:13:43.270Z,93.90
2017-12-31T16:16:10.835Z,93.90
2017-12-31T16:18:40.242Z,93.80
2017-12-31T16:21:08.621Z,93.60
2017-12-31T16:23:36.172Z,93.60
2017-12-31T16:26:03.733Z,93.50
2017-12-31T16:28:34.016Z,93.60
2017-12-31T16:31:02.433Z,93.60
2017-12-31T16:33:34.427Z,93.60
2017-12-31T16:36:02.124Z,93.50
2017-12-31T16:38:31.421Z,93.60
2017-12-31T16:40:59.113Z,93.60
2017-12-31T16:43:26.693Z,93.60
2017-12-31T16:45:54.256Z,93.50
2017-12-31T16:48:21.813Z,93.40
2017-12-31T16:50:50.281Z,93.20
2017-12-31T16:53:18.596Z,93.10
2017-12-31T16:55:46.177Z,93.10
2017-12-31T16:58:13.735Z,93.10
2017-12-31T17:00:41.344Z,93.20
2017-12-31T17:03:13.895Z,93.50
2017-12-31T17:05:43.570Z,93.10
2017-12-31T17:08:12.395Z,93.00
2017-12-31T17:10:39.941Z,93.00
2017-12-31T17:13:09.753Z,92.90
2017-12-31T17:15:40.445Z,92.80
2017-12-31T17:18:10.459Z,92.80
2017-12-31T17:20:39.577Z,92.70
2017-12-31T17:23:09.878Z,92.70
2017-12-31T17:25:38.963Z,92.70
2017-12-31T17:28:08.828Z,92.70
2017-12-31T17:30:38.287Z,92.40
2017-12-31T17:33:05.955Z,92.40
2017-12-31T17:35:33.495Z,92.30
2017-12-31T17:38:01.826Z,92.20
2017-12-31T17:40:30.157Z,92.00
2017-12-31T17:42:58.516Z,92.00
2017-12-31T17:45:26.782Z,92.00
2017-12-31T17:47:54.359Z,91.90
2017-12-31T17:50:21.923Z,91.90
2017-12-31T17:52:52.738Z,91.90
2017-12-31T17:55:21.015Z,91.70
2017-12-31T17:57:48.603Z,91.70
2017-12-31T18:00:17.923Z,91.40
2017-12-31T18:02:46.716Z,91.40
2017-12-31T18:05:17.113Z,91.30
2017-12-31T18:07:48.010Z,91.10
2017-12-31T18:10:17.027Z,91.00
2017-12-31T18:12:45.511Z,91.00
2017-12-31T18:15:13.194Z,91.00
2017-12-31T18:17:40.876Z,90.90
2017-12-31T18:20:08.557Z,90.90
2017-12-31T18:22:36.108Z,90.80
2017-12-31T18:25:03.676Z,90.80
2017-12-31T18:27:31.236Z,90.80
2017-12-31T18:29:58.812Z,90.80
2017-12-31T18:32:26.367Z,90.70
2017-12-31T18:34:54.672Z,90.70
2017-12-31T18:37:22.996Z,90.60
2017-12-31T18:39:50.547Z,90.60
2017-12-31T18:42:18.896Z,90.60
2017-12-31T18:44:47.144Z,90.60
2017-12-31T18:47:17.358Z,90.50
2017-12-31T18:49:46.776Z,90.50
2017-12-31T18:52:14.575Z,90.30
2017-12-31T18:54:44.910Z,90.10
2017-12-31T18:57:12.535Z,90.20
2017-12-31T18:59:40.143Z,90.10
2017-12-31T19:02:08.559Z,90.00
2017-12-31T19:04:36.131Z,89.80
2017-12-31T19:07:03.716Z,89.90
2017-12-31T19:09:32.023Z,89.80
2017-12-31T19:12:00.328Z,89.40
2017-12-31T19:14:27.888Z,89.40
2017-12-31T19:16:55.432Z,89.00
2017-12-31T19:19:22.983Z,88.70
2017-12-31T19:21:51.313Z,88.80
2017-12-31T19:24:18.889Z,88.70
2017-12-31T19:26:46.442Z,88.90
2017-12-31T19:29:14.768Z,88.70
2017-12-31T19:31:42.334Z,88.60
2017-12-31T19:34:10.656Z,88.70
2017-12-31T19:36:38.195Z,88.60
2017-12-31T19:39:05.754Z,88.90
2017-12-31T19:41:33.292Z,88.90
2017-12-31T19:44:00.865Z,88.80
2017-12-31T19:46:29.167Z,88.90
2017-12-31T19:48:58.468Z,88.90
2017-12-31T19:51:26.023Z,88.90
2017-12-31T19:53:53.564Z,88.80
2017-12-31T19:56:21.901Z,89.20
2017-12-31T19:58:49.443Z,88.40
2017-12-31T20:01:17.763Z,88.60
2017-12-31T20:03:45.309Z,88.50
2017-12-31T20:06:12.863Z,88.60
2017-12-31T20:08:40.406Z,88.60
2017-12-31T20:11:08.729Z,88.10
2017-12-31T20:13:36.275Z,88.10
2017-12-31T20:16:04.599Z,88.10
2017-12-31T20:18:32.136Z,88.10
2017-12-31T20:20:59.687Z,88.10
2017-12-31T20:23:27.228Z,88.10
2017-12-31T20:25:55.539Z,88.70
2017-12-31T20:28:23.864Z,87.90
2017-12-31T20:30:51.413Z,87.90
2017-12-31T20:33:18.972Z,87.70
2017-12-31T20:35:46.515Z,88.10
2017-12-31T20:38:14.079Z,87.40
2017-12-31T20:40:42.384Z,87.50
2017-12-31T20:43:10.704Z,87.40
2017-12-31T20:45:38.240Z,87.30
2017-12-31T20:48:05.796Z,87.40
2017-12-31T20:50:33.341Z,87.10
2017-12-31T20:53:00.925Z,87.30
2017-12-31T20:55:28.464Z,87.30
2017-12-31T20:57:56.024Z,87.00
2017-12-31T21:00:23.565Z,87.30
2017-12-31T21:02:51.920Z,86.80
2017-12-31T21:05:19.464Z,86.80
2017-12-31T21:07:47.007Z,86.60
2017-12-31T21:10:14.593Z,86.30
2017-12-31T21:12:42.136Z,86.40
2017-12-31T21:15:09.693Z,86.60
2017-12-31T21:17:37.993Z,86.20
2017-12-31T21:20:06.321Z,86.20
2017-12-31T21:22:33.859Z,86.10
2017-12-31T21:25:02.222Z,86.60
2017-12-31T21:27:29.764Z,85.90
2017-12-31T21:29:58.089Z,85.60
2017-12-31T21:32:25.645Z,86.30
2017-12-31T21:34:53.976Z,85.40
2017-12-31T21:37:22.317Z,85.10
2017-12-31T21:39:49.909Z,85.20
2017-12-31T21:42:17.477Z,85.20
2017-12-31T21:44:45.045Z,85.30
2017-12-31T21:47:12.654Z,85.60
2017-12-31T21:49:40.236Z,85.30
2017-12-31T21:52:08.610Z,85.30
2017-12-31T21:54:36.191Z,85.20
2017-12-31T21:57:03.756Z,84.80
2017-12-31T21:59:31.300Z,84.90
2017-12-31T22:01:58.867Z,84.50
2017-12-31T22:04:26.423Z,84.50
2017-12-31T22:06:53.992Z,84.30
2017-12-31T22:09:22.301Z,84.10
2017-12-31T22:11:49.927Z,84.10
2017-12-31T22:14:17.496Z,83.70
2017-12-31T22:16:46.310Z,83.70
2017-12-31T22:19:13.860Z,83.60
2017-12-31T22:21:41.481Z,83.40
2017-12-31T22:24:09.074Z,83.00
2017-12-31T22:26:37.384Z,83.00
2017-12-31T22:29:04.948Z,83.00
2017-12-31T22:31:32.493Z,82.70
2017-12-31T22:34:00.977Z,82.50
2017-12-31T22:36:29.318Z,82.60
2017-12-31T22:38:56.885Z,82.60
2017-12-31T22:41:25.192Z,82.50
2017-12-31T22:43:53.516Z,81.90
2017-12-31T22:46:21.116Z,81.90
2017-12-31T22:48:48.686Z,82.20
2017-12-31T22:51:16.246Z,82.30
2017-12-31T22:53:43.822Z,81.80
2017-12-31T22:56:12.137Z,82.00
2017-12-31T22:58:39.704Z,82.00
2017-12-31T23:01:08.018Z,81.50
2017-12-31T23:03:35.580Z,81.40
2017-12-31T23:06:04.259Z,81.20
2017-12-31T23:08:32.140Z,81.10
2017-12-31T23:10:59.712Z,80.80
2017-12-31T23:13:27.313Z,80.50
2017-12-31T23:15:54.880Z,80.50
2017-12-31T23:18:22.426Z,80.50
2017-12-31T23:20:49.996Z,80.40
2017-12-31T23:23:17.549Z,80.80
2017-12-31T23:25:45.161Z,80.00
2017-12-31T23:28:13.560Z,79.70
2017-12-31T23:30:41.776Z,79.70
2017-12-31T23:33:09.330Z,79.40
2017-12-31T23:35:36.946Z,79.50
2017-12-31T23:38:04.497Z,79.10
2017-12-31T23:40:32.073Z,79.00
2017-12-31T23:42:59.648Z,78.90
2017-12-31T23:45:27.196Z,78.70
2017-12-31T23:47:54.765Z,78.40
2017-12-31T23:50:22.309Z,78.60
2017-12-31T23:52:49.873Z,78.50
2017-12-31T23:55:17.431Z,78.40
2017-12-31T23:57:45.756Z,77.80
